createdAt,value
2022-11-29T00:06:42.765Z,101257.84
2022-11-29T00:14:20.092Z,101260.97
2022-11-29T00:21:53.876Z,101268.09
2022-11-29T00:29:30.976Z,101262.34
2022-11-29T00:37:05.409Z,101255.31
2022-11-29T00:44:40.597Z,101261.34
2022-11-29T00:52:14.413Z,101258.63
2022-11-29T00:59:49.913Z,101257.72
2022-11-29T01:07:24.237Z,101257.72
2022-11-29T01:15:00.729Z,101260.44
2022-11-29T01:22:35.691Z,101257.00
2022-11-29T01:30:11.966Z,101252.44
2022-11-29T01:37:45.700Z,101255.06
2022-11-29T01:45:26.351Z,101262.28
2022-11-29T01:53:01.072Z,101253.59
2022-11-29T02:00:36.598Z,101250.03
2022-11-29T02:08:12.457Z,101248.31
2022-11-29T02:15:55.280Z,101247.22
2022-11-29T02:24:07.321Z,101259.63
2022-11-29T02:32:08.788Z,101262.19
2022-11-29T02:40:00.218Z,101263.31
2022-11-29T02:47:48.536Z,101269.44
2022-11-29T02:55:30.693Z,101268.66
2022-11-29T03:03:15.589Z,101272.06
2022-11-29T03:10:57.142Z,101275.72
2022-11-29T03:18:36.464Z,101289.72
2022-11-29T03:26:15.906Z,101288.84
2022-11-29T03:33:59.533Z,101293.13
2022-11-29T03:41:41.643Z,101294.84
2022-11-29T03:49:23.064Z,101301.03
2022-11-29T03:56:59.286Z,101295.59
2022-11-29T04:05:12.653Z,101298.25
2022-11-29T04:13:25.102Z,101299.09
2022-11-29T04:21:31.538Z,101305.25
2022-11-29T04:29:28.876Z,101299.16
2022-11-29T04:37:31.788Z,101308.13
2022-11-29T04:45:39.479Z,101308.72
2022-11-29T04:53:40.455Z,101314.75
2022-11-29T05:01:24.318Z,101317.16
2022-11-29T05:09:08.087Z,101323.41
2022-11-29T05:16:48.368Z,101320.75
2022-11-29T05:24:41.540Z,101340.00
2022-11-29T05:32:29.545Z,101340.91
2022-11-29T05:40:28.544Z,101349.88
2022-11-29T05:48:08.899Z,101346.28
2022-11-29T05:55:49.399Z,101364.84
2022-11-29T06:03:31.517Z,101368.44
2022-11-29T06:11:14.976Z,101379.09
2022-11-29T06:19:28.879Z,101389.56
2022-11-29T06:27:22.834Z,101395.94
2022-11-29T06:35:03.473Z,101397.66
2022-11-29T06:42:38.973Z,101405.75
2022-11-29T06:50:31.184Z,101420.88
2022-11-29T06:58:16.153Z,101420.78
2022-11-29T07:05:50.632Z,101431.44
2022-11-29T07:13:26.161Z,101435.13
2022-11-29T07:21:09.979Z,101430.84
2022-11-29T07:28:56.522Z,101442.31
2022-11-29T07:36:38.522Z,101438.09
2022-11-29T07:44:23.327Z,101445.19
2022-11-29T07:51:59.121Z,101450.56
2022-11-29T07:59:34.365Z,101457.75
2022-11-29T08:07:08.598Z,101463.19
2022-11-29T08:14:44.358Z,101468.13
2022-11-29T08:22:18.529Z,101476.38
2022-11-29T08:29:53.810Z,101486.00
2022-11-29T08:37:27.573Z,101480.91
2022-11-29T08:45:02.940Z,101491.63
2022-11-29T08:52:56.465Z,101486.44
2022-11-29T09:00:32.854Z,101482.22
2022-11-29T09:08:06.655Z,101486.09
2022-11-29T09:15:43.594Z,101500.13
2022-11-29T09:23:17.739Z,101509.06
2022-11-29T09:30:53.085Z,101502.41
2022-11-29T09:38:26.936Z,101504.41
2022-11-29T09:46:07.635Z,101509.50
2022-11-29T09:53:58.013Z,101501.88
2022-11-29T10:01:38.690Z,101517.06
2022-11-29T10:09:20.603Z,101515.81
2022-11-29T10:17:04.304Z,101515.97
2022-11-29T10:24:39.586Z,101518.09
2022-11-29T10:32:17.585Z,101513.94
2022-11-29T10:39:57.155Z,101524.75
2022-11-29T10:47:32.829Z,101527.72
2022-11-29T10:55:13.334Z,101530.53
2022-11-29T11:02:49.140Z,101525.44
2022-11-29T11:10:27.859Z,101528.16
2022-11-29T11:18:05.967Z,101526.56
2022-11-29T11:25:41.027Z,101526.81
2022-11-29T11:33:21.123Z,101529.69
2022-11-29T11:41:06.821Z,101531.56
2022-11-29T11:48:42.934Z,101537.84
2022-11-29T11:56:17.617Z,101538.16
2022-11-29T12:03:55.817Z,101536.72
2022-11-29T12:11:37.742Z,101536.09
2022-11-29T12:19:20.387Z,101544.06
2022-11-29T12:26:59.716Z,101549.34
2022-11-29T12:34:56.159Z,101558.16
2022-11-29T12:42:41.969Z,101570.75
2022-11-29T12:50:30.152Z,101575.13
2022-11-29T12:58:12.187Z,101579.66
2022-11-29T13:05:57.394Z,101585.78
2022-11-29T13:13:40.658Z,101590.09
2022-11-29T13:21:20.752Z,101594.50
2022-11-29T13:28:55.590Z,101596.31
2022-11-29T13:36:44.589Z,101604.19
2022-11-29T13:44:28.563Z,101606.00
2022-11-29T13:52:07.629Z,101602.53
2022-11-29T13:59:47.247Z,101606.91
2022-11-29T14:07:23.173Z,101612.91
2022-11-29T14:15:01.453Z,101617.19
2022-11-29T14:22:37.151Z,101619.53
2022-11-29T14:30:55.853Z,101633.31
2022-11-29T14:38:38.849Z,101633.66
2022-11-29T14:46:29.524Z,101631.75
2022-11-29T14:54:14.190Z,101638.56
2022-11-29T15:01:50.435Z,101652.78
2022-11-29T15:09:27.606Z,101647.41
2022-11-29T15:17:15.484Z,101663.28
2022-11-29T15:24:56.746Z,101656.94
2022-11-29T15:32:33.164Z,101662.66
2022-11-29T15:40:13.881Z,101682.91
2022-11-29T15:47:48.184Z,101680.28
2022-11-29T15:55:24.076Z,101684.41
2022-11-29T16:03:00.809Z,101695.91
2022-11-29T16:10:43.547Z,101696.91
2022-11-29T16:18:23.110Z,101700.09
2022-11-29T16:26:02.926Z,101719.72
2022-11-29T16:33:39.497Z,101715.44
2022-11-29T16:41:32.442Z,101726.66
2022-11-29T16:49:34.498Z,101728.31
2022-11-29T16:57:12.180Z,101725.69
2022-11-29T17:04:46.478Z,101730.13
2022-11-29T17:12:21.914Z,101739.00
2022-11-29T17:19:56.018Z,101734.25
2022-11-29T17:27:31.211Z,101747.56
2022-11-29T17:35:05.845Z,101738.56
2022-11-29T17:42:41.009Z,101740.22
2022-11-29T17:50:14.806Z,101749.16
2022-11-29T17:57:50.072Z,101757.09
2022-11-29T18:05:24.074Z,101756.16
2022-11-29T18:12:59.363Z,101764.03
2022-11-29T18:20:33.274Z,101773.94
2022-11-29T18:28:09.172Z,101780.22
2022-11-29T18:35:43.076Z,101786.38
2022-11-29T18:43:18.348Z,101784.59
2022-11-29T18:50:52.331Z,101791.75
2022-11-29T18:58:27.826Z,101782.28
2022-11-29T19:06:01.946Z,101791.16
2022-11-29T19:13:37.440Z,101788.50
2022-11-29T19:21:13.551Z,101787.75
2022-11-29T19:28:49.680Z,101786.03
2022-11-29T19:36:25.691Z,101799.34
2022-11-29T19:44:02.199Z,101796.88
2022-11-29T19:51:37.216Z,101798.59
2022-11-29T19:59:12.371Z,101800.44
2022-11-29T20:06:46.198Z,101802.06
2022-11-29T20:14:21.557Z,101817.28
2022-11-29T20:21:55.353Z,101814.63
2022-11-29T20:29:32.751Z,101815.47
2022-11-29T20:37:26.689Z,101813.81
2022-11-29T20:45:03.248Z,101823.59
2022-11-29T20:52:44.949Z,101834.16
2022-11-29T21:00:21.529Z,101837.69
2022-11-29T21:07:55.497Z,101837.63
2022-11-29T21:15:31.555Z,101835.91
2022-11-29T21:23:15.154Z,101837.78
2022-11-29T21:30:51.343Z,101853.66
2022-11-29T21:38:27.755Z,101852.78
2022-11-29T21:46:03.259Z,101854.50
2022-11-29T21:53:38.528Z,101862.53
2022-11-29T22:01:16.369Z,101859.72
2022-11-29T22:08:50.431Z,101863.38
2022-11-29T22:16:25.742Z,101867.75
2022-11-29T22:23:59.898Z,101869.47
2022-11-29T22:31:37.214Z,101865.09
2022-11-29T22:39:11.269Z,101877.41
2022-11-29T22:46:46.565Z,101875.59
2022-11-29T22:54:20.466Z,101879.06
2022-11-29T23:01:56.276Z,101887.75
2022-11-29T23:09:30.046Z,101895.63
2022-11-29T23:17:05.577Z,101877.91
2022-11-29T23:24:40.810Z,101877.81
2022-11-29T23:32:16.394Z,101890.31
2022-11-29T23:39:50.388Z,101882.31
2022-11-29T23:47:25.735Z,101884.94
2022-11-29T23:54:59.565Z,101884.13
